sensor_id;sensor_type;location;lat;lon;timestamp;P1;durP1;ratioP1;P2;durP2;ratioP2
42146;SDS011;27815;43.410;11.852;2023-06-22T00:00:13;5.28;;;3.67;;
42146;SDS011;27815;43.410;11.852;2023-06-22T00:04:17;5.65;;;3.53;;
42146;SDS011;27815;43.410;11.852;2023-06-22T00:08:20;7.65;;;3.38;;
42146;SDS011;27815;43.410;11.852;2023-06-22T00:12:23;5.25;;;3.15;;
42146;SDS011;27815;43.410;11.852;2023-06-22T00:16:26;7.05;;;3.33;;
42146;SDS011;27815;43.410;11.852;2023-06-22T00:20:29;6.20;;;4.10;;
42146;SDS011;27815;43.410;11.852;2023-06-22T00:24:33;4.60;;;3.20;;
42146;SDS011;27815;43.410;11.852;2023-06-22T00:28:36;7.22;;;4.20;;
42146;SDS011;27815;43.410;11.852;2023-06-22T00:32:39;7.18;;;4.38;;
42146;SDS011;27815;43.410;11.852;2023-06-22T00:36:42;5.05;;;3.50;;
42146;SDS011;27815;43.410;11.852;2023-06-22T00:40:48;5.72;;;3.90;;
42146;SDS011;27815;43.410;11.852;2023-06-22T00:44:51;6.13;;;3.83;;
42146;SDS011;27815;43.410;11.852;2023-06-22T00:48:54;6.10;;;3.88;;
42146;SDS011;27815;43.410;11.852;2023-06-22T00:53:00;5.88;;;3.95;;
42146;SDS011;27815;43.410;11.852;2023-06-22T00:57:14;5.25;;;3.70;;
42146;SDS011;27815;43.410;11.852;2023-06-22T01:01:19;5.15;;;3.58;;
42146;SDS011;27815;43.410;11.852;2023-06-22T01:05:26;5.10;;;3.80;;
42146;SDS011;27815;43.410;11.852;2023-06-22T01:09:32;5.15;;;3.80;;
42146;SDS011;27815;43.410;11.852;2023-06-22T01:13:54;7.65;;;4.70;;
42146;SDS011;27815;43.410;11.852;2023-06-22T01:18:03;6.45;;;4.55;;
42146;SDS011;27815;43.410;11.852;2023-06-22T01:22:07;6.15;;;4.43;;
42146;SDS011;27815;43.410;11.852;2023-06-22T01:26:19;5.22;;;3.90;;
42146;SDS011;27815;43.410;11.852;2023-06-22T01:30:31;5.78;;;4.32;;
42146;SDS011;27815;43.410;11.852;2023-06-22T01:34:38;6.60;;;4.93;;
42146;SDS011;27815;43.410;11.852;2023-06-22T01:38:43;5.63;;;4.30;;
42146;SDS011;27815;43.410;11.852;2023-06-22T01:42:48;5.97;;;4.28;;
42146;SDS011;27815;43.410;11.852;2023-06-22T01:46:52;5.85;;;4.40;;
42146;SDS011;27815;43.410;11.852;2023-06-22T01:50:55;6.20;;;4.78;;
42146;SDS011;27815;43.410;11.852;2023-06-22T01:55:00;7.20;;;5.40;;
42146;SDS011;27815;43.410;11.852;2023-06-22T01:59:11;7.10;;;5.22;;
42146;SDS011;27815;43.410;11.852;2023-06-22T02:03:19;6.80;;;5.22;;
42146;SDS011;27815;43.410;11.852;2023-06-22T02:07:33;6.07;;;4.82;;
42146;SDS011;27815;43.410;11.852;2023-06-22T02:11:44;6.53;;;4.70;;
42146;SDS011;27815;43.410;11.852;2023-06-22T02:15:49;9.40;;;6.10;;
42146;SDS011;27815;43.410;11.852;2023-06-22T02:19:53;6.60;;;5.90;;
42146;SDS011;27815;43.410;11.852;2023-06-22T02:23:56;7.25;;;5.88;;
42146;SDS011;27815;43.410;11.852;2023-06-22T02:27:59;8.43;;;6.13;;
42146;SDS011;27815;43.410;11.852;2023-06-22T02:32:02;7.05;;;6.38;;
42146;SDS011;27815;43.410;11.852;2023-06-22T02:36:06;7.20;;;6.35;;
42146;SDS011;27815;43.410;11.852;2023-06-22T02:40:11;7.82;;;6.22;;
42146;SDS011;27815;43.410;11.852;2023-06-22T02:44:15;8.40;;;6.85;;
42146;SDS011;27815;43.410;11.852;2023-06-22T02:48:18;7.45;;;6.25;;
42146;SDS011;27815;43.410;11.852;2023-06-22T02:52:22;7.60;;;6.82;;
42146;SDS011;27815;43.410;11.852;2023-06-22T02:56:25;8.93;;;6.82;;
42146;SDS011;27815;43.410;11.852;2023-06-22T03:00:33;8.15;;;7.18;;
42146;SDS011;27815;43.410;11.852;2023-06-22T03:04:37;7.57;;;6.78;;
42146;SDS011;27815;43.410;11.852;2023-06-22T03:08:40;7.85;;;6.97;;
42146;SDS011;27815;43.410;11.852;2023-06-22T03:12:46;8.70;;;7.82;;
42146;SDS011;27815;43.410;11.852;2023-06-22T03:16:49;7.90;;;7.10;;
42146;SDS011;27815;43.410;11.852;2023-06-22T03:20:53;7.55;;;6.95;;
42146;SDS011;27815;43.410;11.852;2023-06-22T03:24:56;7.97;;;7.18;;
42146;SDS011;27815;43.410;11.852;2023-06-22T03:29:00;8.40;;;7.60;;
42146;SDS011;27815;43.410;11.852;2023-06-22T03:33:05;7.88;;;7.18;;
42146;SDS011;27815;43.410;11.852;2023-06-22T03:37:09;8.90;;;8.10;;
42146;SDS011;27815;43.410;11.852;2023-06-22T03:41:12;9.02;;;8.23;;
42146;SDS011;27815;43.410;11.852;2023-06-22T03:45:15;8.68;;;7.78;;
42146;SDS011;27815;43.410;11.852;2023-06-22T03:49:18;9.10;;;8.20;;
42146;SDS011;27815;43.410;11.852;2023-06-22T03:53:21;9.15;;;8.35;;
42146;SDS011;27815;43.410;11.852;2023-06-22T03:57:24;8.85;;;7.78;;
42146;SDS011;27815;43.410;11.852;2023-06-22T04:01:27;8.55;;;7.75;;
42146;SDS011;27815;43.410;11.852;2023-06-22T04:05:30;9.88;;;7.72;;
42146;SDS011;27815;43.410;11.852;2023-06-22T04:09:33;7.43;;;6.65;;
42146;SDS011;27815;43.410;11.852;2023-06-22T04:13:36;7.82;;;6.95;;
42146;SDS011;27815;43.410;11.852;2023-06-22T04:17:40;7.50;;;6.72;;
42146;SDS011;27815;43.410;11.852;2023-06-22T04:21:43;8.40;;;7.35;;
42146;SDS011;27815;43.410;11.852;2023-06-22T04:25:46;8.80;;;7.03;;
42146;SDS011;27815;43.410;11.852;2023-06-22T04:29:49;6.93;;;6.22;;
42146;SDS011;27815;43.410;11.852;2023-06-22T04:33:53;7.75;;;7.03;;
42146;SDS011;27815;43.410;11.852;2023-06-22T04:37:57;7.68;;;6.95;;
42146;SDS011;27815;43.410;11.852;2023-06-22T04:42:01;10.75;;;7.25;;
42146;SDS011;27815;43.410;11.852;2023-06-22T04:46:05;6.75;;;6.15;;
42146;SDS011;27815;43.410;11.852;2023-06-22T04:50:08;10.90;;;7.32;;
42146;SDS011;27815;43.410;11.852;2023-06-22T04:54:11;8.70;;;7.80;;
42146;SDS011;27815;43.410;11.852;2023-06-22T04:58:16;8.73;;;7.82;;
42146;SDS011;27815;43.410;11.852;2023-06-22T05:02:19;7.93;;;7.13;;
42146;SDS011;27815;43.410;11.852;2023-06-22T05:06:30;10.18;;;8.73;;
42146;SDS011;27815;43.410;11.852;2023-06-22T05:10:33;9.60;;;8.50;;
42146;SDS011;27815;43.410;11.852;2023-06-22T05:14:36;9.80;;;8.90;;
42146;SDS011;27815;43.410;11.852;2023-06-22T05:18:39;11.18;;;9.70;;
42146;SDS011;27815;43.410;11.852;2023-06-22T05:22:44;11.93;;;9.50;;
42146;SDS011;27815;43.410;11.852;2023-06-22T05:26:48;11.02;;;9.70;;
42146;SDS011;27815;43.410;11.852;2023-06-22T05:30:51;11.15;;;10.02;;
42146;SDS011;27815;43.410;11.852;2023-06-22T05:34:55;11.77;;;10.38;;
42146;SDS011;27815;43.410;11.852;2023-06-22T05:39:10;17.55;;;13.10;;
42146;SDS011;27815;43.410;11.852;2023-06-22T05:43:15;17.98;;;14.27;;
42146;SDS011;27815;43.410;11.852;2023-06-22T05:47:18;26.08;;;20.95;;
42146;SDS011;27815;43.410;11.852;2023-06-22T05:51:22;17.77;;;15.00;;
42146;SDS011;27815;43.410;11.852;2023-06-22T05:55:30;23.20;;;17.70;;
42146;SDS011;27815;43.410;11.852;2023-06-22T05:59:38;16.48;;;12.75;;
42146;SDS011;27815;43.410;11.852;2023-06-22T06:03:42;13.25;;;11.20;;
42146;SDS011;27815;43.410;11.852;2023-06-22T06:07:52;13.15;;;11.13;;
42146;SDS011;27815;43.410;11.852;2023-06-22T06:11:56;17.52;;;11.23;;
42146;SDS011;27815;43.410;11.852;2023-06-22T06:15:59;14.68;;;12.10;;
42146;SDS011;27815;43.410;11.852;2023-06-22T06:20:11;23.63;;;16.15;;
42146;SDS011;27815;43.410;11.852;2023-06-22T06:24:15;38.10;;;21.23;;
42146;SDS011;27815;43.410;11.852;2023-06-22T06:28:19;42.35;;;23.75;;
42146;SDS011;27815;43.410;11.852;2023-06-22T06:32:25;35.60;;;22.85;;
42146;SDS011;27815;43.410;11.852;2023-06-22T06:36:32;28.17;;;17.25;;
42146;SDS011;27815;43.410;11.852;2023-06-22T06:40:39;19.17;;;13.40;;
42146;SDS011;27815;43.410;11.852;2023-06-22T06:44:43;14.80;;;13.20;;
42146;SDS011;27815;43.410;11.852;2023-06-22T06:48:46;15.40;;;13.38;;
42146;SDS011;27815;43.410;11.852;2023-06-22T06:52:50;18.40;;;13.55;;
42146;SDS011;27815;43.410;11.852;2023-06-22T06:56:54;14.45;;;12.25;;
42146;SDS011;27815;43.410;11.852;2023-06-22T07:00:57;15.50;;;12.45;;
42146;SDS011;27815;43.410;11.852;2023-06-22T07:05:00;13.93;;;12.32;;
42146;SDS011;27815;43.410;11.852;2023-06-22T07:09:07;13.75;;;10.70;;
42146;SDS011;27815;43.410;11.852;2023-06-22T07:13:10;12.48;;;11.18;;
42146;SDS011;27815;43.410;11.852;2023-06-22T07:17:13;12.07;;;10.55;;
42146;SDS011;27815;43.410;11.852;2023-06-22T07:21:16;13.55;;;9.77;;
42146;SDS011;27815;43.410;11.852;2023-06-22T07:25:19;10.52;;;9.00;;
42146;SDS011;27815;43.410;11.852;2023-06-22T07:29:22;8.35;;;7.45;;
42146;SDS011;27815;43.410;11.852;2023-06-22T07:33:25;8.85;;;7.97;;
42146;SDS011;27815;43.410;11.852;2023-06-22T07:37:30;9.88;;;7.63;;
42146;SDS011;27815;43.410;11.852;2023-06-22T07:41:35;9.50;;;7.93;;
42146;SDS011;27815;43.410;11.852;2023-06-22T07:45:38;10.63;;;6.43;;
42146;SDS011;27815;43.410;11.852;2023-06-22T07:49:42;7.25;;;6.30;;
42146;SDS011;27815;43.410;11.852;2023-06-22T07:53:46;7.95;;;6.55;;
42146;SDS011;27815;43.410;11.852;2023-06-22T07:57:49;7.70;;;5.80;;
42146;SDS011;27815;43.410;11.852;2023-06-22T08:01:56;7.57;;;5.78;;
42146;SDS011;27815;43.410;11.852;2023-06-22T08:05:59;9.60;;;5.70;;
42146;SDS011;27815;43.410;11.852;2023-06-22T08:10:02;9.82;;;5.72;;
42146;SDS011;27815;43.410;11.852;2023-06-22T08:14:06;10.98;;;6.03;;
42146;SDS011;27815;43.410;11.852;2023-06-22T08:18:09;8.27;;;5.78;;
42146;SDS011;27815;43.410;11.852;2023-06-22T08:22:12;7.95;;;5.90;;
42146;SDS011;27815;43.410;11.852;2023-06-22T08:26:15;10.23;;;6.53;;
42146;SDS011;27815;43.410;11.852;2023-06-22T08:30:21;8.20;;;6.07;;
42146;SDS011;27815;43.410;11.852;2023-06-22T08:34:24;9.00;;;6.35;;
42146;SDS011;27815;43.410;11.852;2023-06-22T08:38:27;8.38;;;6.15;;
42146;SDS011;27815;43.410;11.852;2023-06-22T08:42:30;8.88;;;6.28;;
42146;SDS011;27815;43.410;11.852;2023-06-22T08:46:33;9.38;;;6.35;;
42146;SDS011;27815;43.410;11.852;2023-06-22T08:50:37;11.25;;;6.20;;
42146;SDS011;27815;43.410;11.852;2023-06-22T08:54:41;9.90;;;5.97;;
42146;SDS011;27815;43.410;11.852;2023-06-22T08:58:44;9.63;;;6.47;;
42146;SDS011;27815;43.410;11.852;2023-06-22T09:02:47;9.73;;;6.22;;
42146;SDS011;27815;43.410;11.852;2023-06-22T09:06:51;12.73;;;6.70;;
42146;SDS011;27815;43.410;11.852;2023-06-22T09:10:54;8.55;;;6.25;;
42146;SDS011;27815;43.410;11.852;2023-06-22T09:14:58;9.38;;;6.13;;
42146;SDS011;27815;43.410;11.852;2023-06-22T09:19:06;7.57;;;4.78;;
42146;SDS011;27815;43.410;11.852;2023-06-22T09:23:10;7.05;;;4.28;;
42146;SDS011;27815;43.410;11.852;2023-06-22T09:27:12;7.35;;;4.60;;
42146;SDS011;27815;43.410;11.852;2023-06-22T09:31:16;7.45;;;4.85;;
42146;SDS011;27815;43.410;11.852;2023-06-22T09:35:19;8.25;;;5.03;;
42146;SDS011;27815;43.410;11.852;2023-06-22T09:39:22;5.95;;;4.03;;
42146;SDS011;27815;43.410;11.852;2023-06-22T09:43:25;6.88;;;3.78;;
42146;SDS011;27815;43.410;11.852;2023-06-22T09:47:29;7.63;;;3.88;;
42146;SDS011;27815;43.410;11.852;2023-06-22T09:51:32;6.22;;;3.60;;
42146;SDS011;27815;43.410;11.852;2023-06-22T09:55:35;6.32;;;3.60;;
42146;SDS011;27815;43.410;11.852;2023-06-22T09:59:39;6.90;;;3.75;;
42146;SDS011;27815;43.410;11.852;2023-06-22T10:03:45;7.03;;;4.03;;
42146;SDS011;27815;43.410;11.852;2023-06-22T10:07:48;6.32;;;3.20;;
42146;SDS011;27815;43.410;11.852;2023-06-22T10:11:51;5.38;;;3.30;;
42146;SDS011;27815;43.410;11.852;2023-06-22T10:15:54;5.43;;;2.95;;
42146;SDS011;27815;43.410;11.852;2023-06-22T10:19:57;4.75;;;2.88;;
42146;SDS011;27815;43.410;11.852;2023-06-22T10:24:01;8.05;;;3.47;;
42146;SDS011;27815;43.410;11.852;2023-06-22T10:28:08;6.35;;;2.97;;
42146;SDS011;27815;43.410;11.852;2023-06-22T10:32:11;4.47;;;2.90;;
42146;SDS011;27815;43.410;11.852;2023-06-22T10:36:14;6.03;;;3.20;;
42146;SDS011;27815;43.410;11.852;2023-06-22T10:40:17;4.50;;;2.38;;
42146;SDS011;27815;43.410;11.852;2023-06-22T10:44:21;5.30;;;2.70;;
42146;SDS011;27815;43.410;11.852;2023-06-22T10:48:24;6.65;;;3.00;;
42146;SDS011;27815;43.410;11.852;2023-06-22T10:52:28;5.85;;;3.33;;
42146;SDS011;27815;43.410;11.852;2023-06-22T10:56:31;5.28;;;2.88;;
42146;SDS011;27815;43.410;11.852;2023-06-22T11:00:36;4.90;;;2.90;;
42146;SDS011;27815;43.410;11.852;2023-06-22T11:04:39;5.65;;;2.83;;
42146;SDS011;27815;43.410;11.852;2023-06-22T11:08:43;5.47;;;2.97;;
42146;SDS011;27815;43.410;11.852;2023-06-22T11:13:06;5.57;;;2.72;;
42146;SDS011;27815;43.410;11.852;2023-06-22T11:17:13;5.15;;;2.53;;
42146;SDS011;27815;43.410;11.852;2023-06-22T11:21:16;5.45;;;2.92;;
42146;SDS011;27815;43.410;11.852;2023-06-22T11:25:19;4.75;;;2.72;;
42146;SDS011;27815;43.410;11.852;2023-06-22T11:29:22;5.18;;;2.60;;
42146;SDS011;27815;43.410;11.852;2023-06-22T11:33:38;5.20;;;2.70;;
42146;SDS011;27815;43.410;11.852;2023-06-22T11:37:41;4.32;;;2.38;;
42146;SDS011;27815;43.410;11.852;2023-06-22T11:41:47;11.38;;;2.40;;
42146;SDS011;27815;43.410;11.852;2023-06-22T11:45:50;4.43;;;2.40;;
42146;SDS011;27815;43.410;11.852;2023-06-22T11:49:54;5.88;;;2.47;;
42146;SDS011;27815;43.410;11.852;2023-06-22T11:53:57;5.60;;;2.70;;
42146;SDS011;27815;43.410;11.852;2023-06-22T11:58:01;4.47;;;2.40;;
42146;SDS011;27815;43.410;11.852;2023-06-22T12:02:08;7.80;;;2.83;;
42146;SDS011;27815;43.410;11.852;2023-06-22T12:06:17;4.13;;;2.22;;
42146;SDS011;27815;43.410;11.852;2023-06-22T12:10:21;4.43;;;2.20;;
42146;SDS011;27815;43.410;11.852;2023-06-22T12:14:24;4.53;;;2.42;;
42146;SDS011;27815;43.410;11.852;2023-06-22T12:18:27;6.97;;;2.90;;
42146;SDS011;27815;43.410;11.852;2023-06-22T12:22:33;5.38;;;2.47;;
42146;SDS011;27815;43.410;11.852;2023-06-22T12:26:37;6.35;;;2.55;;
42146;SDS011;27815;43.410;11.852;2023-06-22T12:30:40;4.78;;;2.38;;
42146;SDS011;27815;43.410;11.852;2023-06-22T12:34:43;6.15;;;2.72;;
42146;SDS011;27815;43.410;11.852;2023-06-22T12:38:46;6.50;;;2.47;;
42146;SDS011;27815;43.410;11.852;2023-06-22T12:42:50;6.22;;;2.88;;
42146;SDS011;27815;43.410;11.852;2023-06-22T12:46:53;7.00;;;2.20;;
42146;SDS011;27815;43.410;11.852;2023-06-22T12:50:56;6.18;;;3.03;;
42146;SDS011;27815;43.410;11.852;2023-06-22T12:54:59;6.68;;;2.58;;
42146;SDS011;27815;43.410;11.852;2023-06-22T12:59:03;4.78;;;2.50;;
42146;SDS011;27815;43.410;11.852;2023-06-22T13:03:06;6.82;;;2.90;;
42146;SDS011;27815;43.410;11.852;2023-06-22T13:07:10;8.50;;;3.10;;
42146;SDS011;27815;43.410;11.852;2023-06-22T13:11:16;7.68;;;3.35;;
42146;SDS011;27815;43.410;11.852;2023-06-22T13:15:19;8.10;;;2.60;;
42146;SDS011;27815;43.410;11.852;2023-06-22T13:19:22;8.38;;;2.88;;
42146;SDS011;27815;43.410;11.852;2023-06-22T13:23:24;5.57;;;2.47;;
42146;SDS011;27815;43.410;11.852;2023-06-22T13:27:28;6.55;;;2.90;;
42146;SDS011;27815;43.410;11.852;2023-06-22T13:31:31;3.53;;;2.28;;
42146;SDS011;27815;43.410;11.852;2023-06-22T13:35:34;6.20;;;2.28;;
42146;SDS011;27815;43.410;11.852;2023-06-22T13:39:40;7.50;;;2.35;;
42146;SDS011;27815;43.410;11.852;2023-06-22T13:43:43;7.50;;;2.60;;
42146;SDS011;27815;43.410;11.852;2023-06-22T13:47:46;6.10;;;2.35;;
42146;SDS011;27815;43.410;11.852;2023-06-22T13:51:49;8.25;;;2.35;;
42146;SDS011;27815;43.410;11.852;2023-06-22T13:55:52;6.47;;;2.03;;
42146;SDS011;27815;43.410;11.852;2023-06-22T13:59:56;5.57;;;2.22;;
42146;SDS011;27815;43.410;11.852;2023-06-22T14:03:59;4.80;;;2.20;;
42146;SDS011;27815;43.410;11.852;2023-06-22T14:08:04;5.00;;;2.23;;
42146;SDS011;27815;43.410;11.852;2023-06-22T14:12:27;4.82;;;2.30;;
42146;SDS011;27815;43.410;11.852;2023-06-22T14:16:30;5.90;;;2.13;;
42146;SDS011;27815;43.410;11.852;2023-06-22T14:20:33;7.45;;;2.63;;
42146;SDS011;27815;43.410;11.852;2023-06-22T14:24:36;5.57;;;2.10;;
42146;SDS011;27815;43.410;11.852;2023-06-22T14:28:39;5.47;;;2.10;;
42146;SDS011;27815;43.410;11.852;2023-06-22T14:32:43;6.55;;;1.85;;
42146;SDS011;27815;43.410;11.852;2023-06-22T14:36:46;6.82;;;2.22;;
42146;SDS011;27815;43.410;11.852;2023-06-22T14:40:49;6.38;;;2.45;;
42146;SDS011;27815;43.410;11.852;2023-06-22T14:45:12;9.93;;;2.45;;
42146;SDS011;27815;43.410;11.852;2023-06-22T14:49:16;6.15;;;1.92;;
42146;SDS011;27815;43.410;11.852;2023-06-22T14:53:19;5.50;;;2.20;;
42146;SDS011;27815;43.410;11.852;2023-06-22T14:57:22;4.85;;;2.33;;
42146;SDS011;27815;43.410;11.852;2023-06-22T15:01:25;6.25;;;2.00;;
42146;SDS011;27815;43.410;11.852;2023-06-22T15:05:29;6.40;;;2.50;;
42146;SDS011;27815;43.410;11.852;2023-06-22T15:09:31;5.45;;;2.05;;
42146;SDS011;27815;43.410;11.852;2023-06-22T15:13:38;9.10;;;2.55;;
42146;SDS011;27815;43.410;11.852;2023-06-22T15:17:42;7.05;;;2.22;;
42146;SDS011;27815;43.410;11.852;2023-06-22T15:21:45;4.38;;;2.20;;
42146;SDS011;27815;43.410;11.852;2023-06-22T15:25:48;6.90;;;2.70;;
42146;SDS011;27815;43.410;11.852;2023-06-22T15:29:51;6.20;;;2.25;;
42146;SDS011;27815;43.410;11.852;2023-06-22T15:33:54;7.05;;;2.70;;
42146;SDS011;27815;43.410;11.852;2023-06-22T15:37:57;8.50;;;2.17;;
42146;SDS011;27815;43.410;11.852;2023-06-22T15:42:00;5.85;;;2.33;;
42146;SDS011;27815;43.410;11.852;2023-06-22T15:46:03;4.32;;;2.25;;
42146;SDS011;27815;43.410;11.852;2023-06-22T15:50:06;5.20;;;2.40;;
42146;SDS011;27815;43.410;11.852;2023-06-22T15:54:09;6.10;;;2.47;;
42146;SDS011;27815;43.410;11.852;2023-06-22T15:58:14;8.38;;;2.13;;
42146;SDS011;27815;43.410;11.852;2023-06-22T16:02:19;7.83;;;2.77;;
42146;SDS011;27815;43.410;11.852;2023-06-22T16:06:23;8.48;;;2.47;;
42146;SDS011;27815;43.410;11.852;2023-06-22T16:10:26;8.15;;;2.85;;
42146;SDS011;27815;43.410;11.852;2023-06-22T16:14:29;7.22;;;2.38;;
42146;SDS011;27815;43.410;11.852;2023-06-22T16:18:33;7.75;;;2.47;;
42146;SDS011;27815;43.410;11.852;2023-06-22T16:22:36;8.32;;;3.65;;
42146;SDS011;27815;43.410;11.852;2023-06-22T16:26:40;525.22;;;276.00;;
42146;SDS011;27815;43.410;11.852;2023-06-22T16:30:44;383.90;;;191.50;;
42146;SDS011;27815;43.410;11.852;2023-06-22T16:34:47;369.73;;;180.85;;
42146;SDS011;27815;43.410;11.852;2023-06-22T16:38:50;86.53;;;45.53;;
42146;SDS011;27815;43.410;11.852;2023-06-22T16:42:54;139.23;;;65.00;;
42146;SDS011;27815;43.410;11.852;2023-06-22T16:46:59;37.08;;;20.98;;
42146;SDS011;27815;43.410;11.852;2023-06-22T16:51:10;39.60;;;20.42;;
42146;SDS011;27815;43.410;11.852;2023-06-22T16:55:14;21.73;;;10.45;;
42146;SDS011;27815;43.410;11.852;2023-06-22T16:59:17;13.65;;;6.28;;
42146;SDS011;27815;43.410;11.852;2023-06-22T17:03:22;10.95;;;6.00;;
42146;SDS011;27815;43.410;11.852;2023-06-22T17:07:28;8.27;;;3.40;;
42146;SDS011;27815;43.410;11.852;2023-06-22T17:11:34;8.45;;;3.63;;
42146;SDS011;27815;43.410;11.852;2023-06-22T17:15:37;9.23;;;4.60;;
42146;SDS011;27815;43.410;11.852;2023-06-22T17:23:49;17.10;;;7.60;;
42146;SDS011;27815;43.410;11.852;2023-06-22T17:27:59;20.88;;;9.15;;
42146;SDS011;27815;43.410;11.852;2023-06-22T17:32:03;8.95;;;3.88;;
42146;SDS011;27815;43.410;11.852;2023-06-22T17:36:13;8.63;;;3.35;;
42146;SDS011;27815;43.410;11.852;2023-06-22T17:40:20;7.93;;;3.03;;
42146;SDS011;27815;43.410;11.852;2023-06-22T17:44:26;7.32;;;3.50;;
42146;SDS011;27815;43.410;11.852;2023-06-22T17:48:30;6.35;;;2.88;;
42146;SDS011;27815;43.410;11.852;2023-06-22T17:52:33;6.32;;;2.92;;
42146;SDS011;27815;43.410;11.852;2023-06-22T17:56:36;32.78;;;14.20;;
42146;SDS011;27815;43.410;11.852;2023-06-22T18:00:40;19.10;;;7.20;;
42146;SDS011;27815;43.410;11.852;2023-06-22T18:08:48;9.18;;;2.83;;
42146;SDS011;27815;43.410;11.852;2023-06-22T18:12:54;5.47;;;2.30;;
42146;SDS011;27815;43.410;11.852;2023-06-22T18:16:58;4.60;;;2.37;;
42146;SDS011;27815;43.410;11.852;2023-06-22T18:21:02;6.32;;;2.50;;
42146;SDS011;27815;43.410;11.852;2023-06-22T18:25:07;5.93;;;2.33;;
42146;SDS011;27815;43.410;11.852;2023-06-22T18:29:11;6.57;;;3.03;;
42146;SDS011;27815;43.410;11.852;2023-06-22T18:33:14;6.45;;;3.55;;
42146;SDS011;27815;43.410;11.852;2023-06-22T18:37:17;6.50;;;3.20;;
42146;SDS011;27815;43.410;11.852;2023-06-22T18:41:32;5.40;;;2.60;;
42146;SDS011;27815;43.410;11.852;2023-06-22T18:45:43;7.30;;;2.78;;
42146;SDS011;27815;43.410;11.852;2023-06-22T18:49:46;6.03;;;2.15;;
42146;SDS011;27815;43.410;11.852;2023-06-22T18:54:03;5.60;;;2.25;;
42146;SDS011;27815;43.410;11.852;2023-06-22T18:58:24;4.57;;;2.10;;
42146;SDS011;27815;43.410;11.852;2023-06-22T19:07:05;6.03;;;2.28;;
42146;SDS011;27815;43.410;11.852;2023-06-22T19:11:12;4.25;;;2.10;;
42146;SDS011;27815;43.410;11.852;2023-06-22T19:15:17;5.22;;;2.08;;
42146;SDS011;27815;43.410;11.852;2023-06-22T19:19:22;4.10;;;2.00;;
42146;SDS011;27815;43.410;11.852;2023-06-22T19:23:36;5.05;;;1.90;;
42146;SDS011;27815;43.410;11.852;2023-06-22T19:32:19;4.22;;;1.70;;
42146;SDS011;27815;43.410;11.852;2023-06-22T19:36:23;6.18;;;2.58;;
42146;SDS011;27815;43.410;11.852;2023-06-22T19:40:27;6.30;;;2.20;;
42146;SDS011;27815;43.410;11.852;2023-06-22T19:44:30;4.38;;;2.20;;
42146;SDS011;27815;43.410;11.852;2023-06-22T19:48:33;5.43;;;2.63;;
42146;SDS011;27815;43.410;11.852;2023-06-22T19:52:38;4.68;;;2.20;;
42146;SDS011;27815;43.410;11.852;2023-06-22T19:56:43;4.72;;;2.60;;
42146;SDS011;27815;43.410;11.852;2023-06-22T20:00:55;4.43;;;2.60;;
42146;SDS011;27815;43.410;11.852;2023-06-22T20:05:05;6.93;;;2.50;;
42146;SDS011;27815;43.410;11.852;2023-06-22T20:09:09;4.03;;;2.10;;
42146;SDS011;27815;43.410;11.852;2023-06-22T20:13:19;4.72;;;2.10;;
42146;SDS011;27815;43.410;11.852;2023-06-22T20:17:23;6.15;;;2.20;;
42146;SDS011;27815;43.410;11.852;2023-06-22T20:21:27;4.90;;;2.22;;
42146;SDS011;27815;43.410;11.852;2023-06-22T20:25:31;3.90;;;2.17;;
42146;SDS011;27815;43.410;11.852;2023-06-22T20:29:37;4.13;;;2.17;;
42146;SDS011;27815;43.410;11.852;2023-06-22T20:33:45;6.70;;;2.80;;
42146;SDS011;27815;43.410;11.852;2023-06-22T20:37:48;3.42;;;1.88;;
42146;SDS011;27815;43.410;11.852;2023-06-22T20:41:56;4.28;;;2.10;;
42146;SDS011;27815;43.410;11.852;2023-06-22T20:46:00;4.00;;;1.98;;
42146;SDS011;27815;43.410;11.852;2023-06-22T20:50:04;7.20;;;2.15;;
42146;SDS011;27815;43.410;11.852;2023-06-22T20:54:09;4.20;;;1.98;;
42146;SDS011;27815;43.410;11.852;2023-06-22T20:58:13;4.75;;;1.90;;
42146;SDS011;27815;43.410;11.852;2023-06-22T21:02:16;6.80;;;2.78;;
42146;SDS011;27815;43.410;11.852;2023-06-22T21:06:19;4.03;;;2.20;;
42146;SDS011;27815;43.410;11.852;2023-06-22T21:10:22;4.10;;;2.15;;
42146;SDS011;27815;43.410;11.852;2023-06-22T21:14:25;5.15;;;2.40;;
42146;SDS011;27815;43.410;11.852;2023-06-22T21:18:28;4.57;;;2.08;;
42146;SDS011;27815;43.410;11.852;2023-06-22T21:22:31;6.07;;;2.20;;
42146;SDS011;27815;43.410;11.852;2023-06-22T21:26:35;7.82;;;2.10;;
42146;SDS011;27815;43.410;11.852;2023-06-22T21:30:38;5.03;;;2.30;;
42146;SDS011;27815;43.410;11.852;2023-06-22T21:34:41;4.57;;;2.10;;
42146;SDS011;27815;43.410;11.852;2023-06-22T21:38:44;4.97;;;2.10;;
42146;SDS011;27815;43.410;11.852;2023-06-22T21:42:48;5.35;;;2.22;;
42146;SDS011;27815;43.410;11.852;2023-06-22T21:46:52;7.72;;;1.90;;
42146;SDS011;27815;43.410;11.852;2023-06-22T21:50:56;3.95;;;1.95;;
42146;SDS011;27815;43.410;11.852;2023-06-22T21:54:59;4.72;;;2.42;;
42146;SDS011;27815;43.410;11.852;2023-06-22T21:59:03;4.05;;;2.30;;
42146;SDS011;27815;43.410;11.852;2023-06-22T22:03:06;4.13;;;2.20;;
42146;SDS011;27815;43.410;11.852;2023-06-22T22:07:10;5.50;;;2.28;;
42146;SDS011;27815;43.410;11.852;2023-06-22T22:11:13;5.28;;;2.10;;
42146;SDS011;27815;43.410;11.852;2023-06-22T22:15:16;6.30;;;2.55;;
42146;SDS011;27815;43.410;11.852;2023-06-22T22:19:19;5.72;;;2.33;;
42146;SDS011;27815;43.410;11.852;2023-06-22T22:23:23;3.90;;;2.20;;
42146;SDS011;27815;43.410;11.852;2023-06-22T22:27:28;4.38;;;2.13;;
42146;SDS011;27815;43.410;11.852;2023-06-22T22:31:32;5.47;;;2.55;;
42146;SDS011;27815;43.410;11.852;2023-06-22T22:35:41;4.32;;;2.20;;
42146;SDS011;27815;43.410;11.852;2023-06-22T22:39:45;4.55;;;1.83;;
42146;SDS011;27815;43.410;11.852;2023-06-22T22:47:54;3.75;;;2.00;;
42146;SDS011;27815;43.410;11.852;2023-06-22T22:51:57;4.55;;;2.20;;
42146;SDS011;27815;43.410;11.852;2023-06-22T22:56:01;4.32;;;2.17;;
42146;SDS011;27815;43.410;11.852;2023-06-22T23:00:04;7.82;;;2.13;;
42146;SDS011;27815;43.410;11.852;2023-06-22T23:04:12;5.70;;;2.10;;
42146;SDS011;27815;43.410;11.852;2023-06-22T23:08:20;4.88;;;2.13;;
42146;SDS011;27815;43.410;11.852;2023-06-22T23:12:24;4.75;;;2.13;;
42146;SDS011;27815;43.410;11.852;2023-06-22T23:16:27;5.45;;;2.28;;
42146;SDS011;27815;43.410;11.852;2023-06-22T23:20:31;4.10;;;2.00;;
42146;SDS011;27815;43.410;11.852;2023-06-22T23:24:34;5.03;;;2.30;;
42146;SDS011;27815;43.410;11.852;2023-06-22T23:28:38;2.80;;;1.73;;
42146;SDS011;27815;43.410;11.852;2023-06-22T23:32:41;4.07;;;2.00;;
42146;SDS011;27815;43.410;11.852;2023-06-22T23:36:44;5.93;;;2.50;;
42146;SDS011;27815;43.410;11.852;2023-06-22T23:40:47;4.53;;;2.03;;
42146;SDS011;27815;43.410;11.852;2023-06-22T23:44:52;4.63;;;2.15;;
42146;SDS011;27815;43.410;11.852;2023-06-22T23:48:56;4.10;;;2.13;;
42146;SDS011;27815;43.410;11.852;2023-06-22T23:53:01;3.92;;;2.10;;
42146;SDS011;27815;43.410;11.852;2023-06-22T23:57:04;4.85;;;2.45;;
